createdAt,value
2023-05-17T00:00:11.197Z,71.63
2023-05-17T00:03:00.357Z,71.80
2023-05-17T00:05:29.592Z,71.83
2023-05-17T00:07:58.803Z,71.47
2023-05-17T00:10:28.147Z,71.21
2023-05-17T00:12:57.275Z,71.13
2023-05-17T00:15:26.675Z,71.16
2023-05-17T00:17:56.813Z,70.88
2023-05-17T00:20:26.284Z,70.52
2023-05-17T00:22:55.178Z,70.52
2023-05-17T00:25:23.990Z,70.81
2023-05-17T00:27:52.787Z,70.66
2023-05-17T00:30:22.103Z,70.41
2023-05-17T00:32:51.159Z,69.80
2023-05-17T00:35:20.596Z,69.93
2023-05-17T00:37:49.774Z,69.94
2023-05-17T00:40:18.961Z,70.11
2023-05-17T00:42:47.981Z,70.03
2023-05-17T00:45:17.000Z,69.64
2023-05-17T00:47:46.058Z,69.80
2023-05-17T00:50:15.083Z,70.49
2023-05-17T00:52:44.615Z,70.59
2023-05-17T00:55:13.942Z,70.35
2023-05-17T00:57:43.301Z,69.87
2023-05-17T01:00:13.211Z,70.52
2023-05-17T01:02:45.502Z,70.63
2023-05-17T01:05:16.057Z,70.37
2023-05-17T01:07:45.126Z,70.10
2023-05-17T01:10:14.560Z,70.28
2023-05-17T01:12:56.216Z,70.38
2023-05-17T01:15:37.681Z,70.59
2023-05-17T01:18:42.563Z,70.82
2023-05-17T01:21:47.578Z,70.83
2023-05-17T01:24:55.053Z,70.77
2023-05-17T01:27:27.287Z,71.43
2023-05-17T01:29:57.965Z,71.97
2023-05-17T01:32:27.241Z,71.95
2023-05-17T01:34:56.504Z,71.86
2023-05-17T01:37:25.851Z,72.17
2023-05-17T01:39:55.342Z,72.51
2023-05-17T01:42:32.373Z,72.63
2023-05-17T01:45:10.598Z,72.65
2023-05-17T01:47:54.922Z,72.36
2023-05-17T01:50:28.171Z,72.06
2023-05-17T01:53:06.804Z,71.96
2023-05-17T01:55:44.672Z,71.70
2023-05-17T01:58:14.425Z,71.16
2023-05-17T02:00:45.888Z,70.82
2023-05-17T02:03:18.929Z,70.75
2023-05-17T02:05:48.049Z,70.88
2023-05-17T02:08:17.091Z,70.93
2023-05-17T02:10:46.061Z,70.73
2023-05-17T02:13:15.049Z,70.50
2023-05-17T02:15:43.999Z,70.55
2023-05-17T02:18:13.493Z,70.71
2023-05-17T02:20:42.503Z,70.55
2023-05-17T02:23:11.972Z,70.53
2023-05-17T02:25:40.773Z,70.49
2023-05-17T02:28:09.670Z,70.52
2023-05-17T02:30:41.521Z,70.79
2023-05-17T02:33:10.730Z,70.60
2023-05-17T02:35:39.552Z,70.60
2023-05-17T02:38:08.959Z,70.58
2023-05-17T02:40:37.997Z,70.55
2023-05-17T02:43:07.104Z,70.54
2023-05-17T02:45:36.300Z,70.45
2023-05-17T02:48:06.405Z,70.43
2023-05-17T02:50:35.910Z,70.60
2023-05-17T02:53:04.999Z,70.98
2023-05-17T02:55:33.552Z,71.45
2023-05-17T02:58:02.290Z,71.27
2023-05-17T03:00:31.291Z,71.40
2023-05-17T03:03:00.180Z,71.40
2023-05-17T03:05:29.384Z,71.30
2023-05-17T03:07:58.759Z,71.63
2023-05-17T03:10:27.600Z,71.46
2023-05-17T03:12:57.230Z,70.72
2023-05-17T03:15:30.172Z,70.71
2023-05-17T03:17:59.816Z,71.34
2023-05-17T03:20:28.974Z,71.57
2023-05-17T03:22:58.591Z,71.54
2023-05-17T03:25:27.533Z,71.36
2023-05-17T03:27:56.988Z,71.60
2023-05-17T03:30:26.206Z,71.72
2023-05-17T03:32:56.086Z,71.78
2023-05-17T03:35:25.174Z,71.54
2023-05-17T03:37:54.400Z,71.07
2023-05-17T03:40:23.576Z,71.03
2023-05-17T03:42:53.088Z,71.15
2023-05-17T03:45:22.209Z,71.04
2023-05-17T03:47:51.489Z,71.20
2023-05-17T03:50:21.368Z,70.86
2023-05-17T03:52:50.571Z,70.60
2023-05-17T03:55:19.520Z,71.18
2023-05-17T03:57:48.496Z,71.28
2023-05-17T04:00:22.294Z,71.26
2023-05-17T04:02:52.805Z,71.45
2023-05-17T04:05:22.831Z,71.44
2023-05-17T04:07:52.047Z,71.66
2023-05-17T04:10:21.298Z,72.15
2023-05-17T04:12:50.415Z,72.44
2023-05-17T04:15:21.265Z,72.36
2023-05-17T04:17:51.650Z,72.09
2023-05-17T04:20:20.828Z,71.96
2023-05-17T04:22:50.231Z,72.33
2023-05-17T04:25:19.429Z,72.23
2023-05-17T04:27:49.131Z,72.07
2023-05-17T04:30:18.377Z,71.74
2023-05-17T04:32:47.593Z,71.58
2023-05-17T04:35:17.276Z,71.99
2023-05-17T04:37:46.804Z,72.18
2023-05-17T04:40:16.184Z,71.64
2023-05-17T04:42:45.678Z,70.97
2023-05-17T04:45:15.488Z,70.86
2023-05-17T04:47:45.007Z,70.51
2023-05-17T04:50:14.237Z,70.72
2023-05-17T04:52:43.639Z,71.00
2023-05-17T04:55:12.820Z,70.87
2023-05-17T04:57:42.724Z,70.78
2023-05-17T05:00:12.787Z,71.08
2023-05-17T05:02:42.761Z,71.13
2023-05-17T05:05:12.614Z,70.40
2023-05-17T05:07:41.314Z,70.01
2023-05-17T05:10:10.555Z,70.05
2023-05-17T05:12:39.654Z,70.11
2023-05-17T05:15:09.206Z,69.93
2023-05-17T05:17:38.260Z,69.53
2023-05-17T05:20:09.094Z,69.24
2023-05-17T05:22:38.048Z,69.21
2023-05-17T05:25:08.465Z,69.11
2023-05-17T05:27:37.846Z,68.90
2023-05-17T05:30:07.988Z,68.83
2023-05-17T05:32:38.481Z,68.45
2023-05-17T05:35:08.181Z,68.59
2023-05-17T05:37:37.292Z,68.86
2023-05-17T05:40:07.560Z,69.04
2023-05-17T05:42:36.830Z,69.28
2023-05-17T05:45:06.505Z,69.23
2023-05-17T05:47:36.315Z,69.15
2023-05-17T05:50:06.805Z,68.90
2023-05-17T05:52:36.315Z,68.81
2023-05-17T05:55:06.273Z,68.94
2023-05-17T05:57:36.498Z,69.08
2023-05-17T06:00:06.850Z,69.49
2023-05-17T06:02:36.536Z,69.66
2023-05-17T06:05:07.555Z,69.46
2023-05-17T06:07:37.018Z,69.47
2023-05-17T06:10:06.312Z,69.57
2023-05-17T06:12:35.747Z,69.79
2023-05-17T06:15:05.925Z,69.74
2023-05-17T06:17:35.713Z,69.86
2023-05-17T06:20:05.938Z,69.94
2023-05-17T06:22:35.713Z,70.23
2023-05-17T06:25:05.322Z,70.66
2023-05-17T06:27:35.161Z,70.60
2023-05-17T06:30:07.488Z,70.22
2023-05-17T06:32:37.304Z,70.14
2023-05-17T06:35:07.530Z,70.06
2023-05-17T06:37:36.723Z,70.08
2023-05-17T06:40:16.535Z,69.59
2023-05-17T06:42:46.555Z,69.40
2023-05-17T06:45:16.140Z,69.51
2023-05-17T06:47:45.330Z,69.29
2023-05-17T06:50:14.881Z,69.28
2023-05-17T06:52:45.852Z,69.04
2023-05-17T06:55:14.872Z,68.93
2023-05-17T06:57:44.047Z,68.77
2023-05-17T07:00:13.683Z,68.00
2023-05-17T07:02:42.870Z,67.69
2023-05-17T07:05:12.890Z,67.41
2023-05-17T07:07:42.543Z,66.99
2023-05-17T07:10:12.748Z,66.58
2023-05-17T07:12:42.006Z,66.38
2023-05-17T07:15:12.101Z,65.97
2023-05-17T07:17:42.084Z,65.80
2023-05-17T07:20:13.822Z,65.43
2023-05-17T07:22:44.040Z,64.99
2023-05-17T07:25:13.760Z,64.68
2023-05-17T07:27:42.956Z,64.21
2023-05-17T07:30:12.687Z,63.96
2023-05-17T07:32:41.708Z,63.64
2023-05-17T07:35:11.102Z,62.85
2023-05-17T07:37:40.669Z,61.90
2023-05-17T07:40:11.032Z,61.45
2023-05-17T07:42:40.092Z,60.95
2023-05-17T07:45:09.762Z,60.55
2023-05-17T07:47:39.483Z,60.20
2023-05-17T07:50:09.246Z,59.55
2023-05-17T07:52:38.808Z,58.38
2023-05-17T07:55:08.255Z,57.69
2023-05-17T07:57:37.629Z,56.78
2023-05-17T08:00:09.185Z,55.92
2023-05-17T08:02:38.316Z,55.49
2023-05-17T08:05:09.339Z,55.21
2023-05-17T08:07:39.036Z,54.93
2023-05-17T08:10:08.993Z,54.94
2023-05-17T08:12:38.544Z,54.98
2023-05-17T08:15:08.534Z,54.99
2023-05-17T08:17:37.478Z,54.55
2023-05-17T08:20:08.684Z,54.89
2023-05-17T08:22:38.006Z,53.96
2023-05-17T08:25:08.108Z,53.54
2023-05-17T08:27:39.097Z,54.09
2023-05-17T08:30:11.625Z,54.21
2023-05-17T08:32:45.654Z,54.33
2023-05-17T08:35:15.153Z,54.99
2023-05-17T08:37:44.537Z,55.29
2023-05-17T08:40:15.647Z,55.69
2023-05-17T08:42:45.518Z,56.09
2023-05-17T08:45:15.938Z,55.82
2023-05-17T08:47:46.780Z,56.36
2023-05-17T08:50:16.253Z,56.76
2023-05-17T08:52:47.154Z,56.51
2023-05-17T08:55:16.905Z,56.36
2023-05-17T08:57:47.656Z,55.82
2023-05-17T09:00:22.376Z,55.87
2023-05-17T09:02:51.308Z,55.18
2023-05-17T09:05:21.046Z,54.99
2023-05-17T09:07:51.080Z,55.12
2023-05-17T09:10:21.174Z,54.81
2023-05-17T09:12:51.399Z,54.99
2023-05-17T09:15:24.931Z,55.60
2023-05-17T09:17:55.592Z,55.84
2023-05-17T09:20:26.572Z,56.41
2023-05-17T09:22:56.292Z,56.69
2023-05-17T09:25:25.846Z,56.21
2023-05-17T09:27:55.766Z,55.97
2023-05-17T09:30:29.001Z,55.73
2023-05-17T09:32:59.102Z,55.40
2023-05-17T09:35:32.224Z,55.10
2023-05-17T09:38:12.922Z,54.48
2023-05-17T09:40:44.269Z,53.91
2023-05-17T09:43:13.813Z,54.22
2023-05-17T09:45:43.141Z,54.40
2023-05-17T09:48:18.186Z,54.68
2023-05-17T09:50:50.359Z,55.09
2023-05-17T09:53:29.482Z,54.98
2023-05-17T09:56:03.686Z,55.24
2023-05-17T09:58:33.982Z,55.09
2023-05-17T10:01:05.441Z,54.84
2023-05-17T10:03:39.274Z,54.45
2023-05-17T10:06:13.279Z,54.18
2023-05-17T10:08:51.669Z,54.14
2023-05-17T10:11:27.102Z,53.72
2023-05-17T10:14:02.624Z,53.68
2023-05-17T10:16:35.005Z,53.35
2023-05-17T10:19:05.479Z,52.97
2023-05-17T10:21:35.269Z,52.42
2023-05-17T10:24:04.765Z,51.96
2023-05-17T10:26:34.626Z,51.42
2023-05-17T10:29:04.837Z,52.09
2023-05-17T10:31:35.122Z,53.01
2023-05-17T10:34:07.078Z,54.01
2023-05-17T10:36:36.462Z,55.51
2023-05-17T10:39:10.917Z,55.60
2023-05-17T10:41:45.205Z,55.61
2023-05-17T10:44:17.193Z,56.72
2023-05-17T10:46:57.606Z,56.35
2023-05-17T10:49:32.921Z,55.83
2023-05-17T10:52:17.134Z,56.09
2023-05-17T10:54:50.546Z,55.92
2023-05-17T10:57:23.006Z,55.90
2023-05-17T11:00:00.373Z,57.21
2023-05-17T11:02:31.919Z,59.15
2023-05-17T11:05:02.863Z,60.72
2023-05-17T11:07:34.345Z,60.84
2023-05-17T11:10:20.984Z,62.10
2023-05-17T11:12:55.853Z,62.99
2023-05-17T11:15:26.972Z,63.73
2023-05-17T11:17:59.003Z,63.32
2023-05-17T11:20:28.572Z,63.17
2023-05-17T11:23:01.968Z,63.45
2023-05-17T11:25:36.497Z,62.93
2023-05-17T11:28:24.396Z,63.29
2023-05-17T11:31:02.166Z,62.39
2023-05-17T11:33:46.900Z,61.68
2023-05-17T11:36:21.125Z,61.25
2023-05-17T11:39:10.542Z,61.86
2023-05-17T11:41:48.129Z,61.35
2023-05-17T11:44:26.072Z,61.10
2023-05-17T11:47:06.647Z,60.28
2023-05-17T11:49:39.807Z,59.80
2023-05-17T11:52:09.143Z,58.89
2023-05-17T11:54:40.792Z,58.69
2023-05-17T11:57:12.983Z,58.48
2023-05-17T11:59:42.158Z,57.17
2023-05-17T12:02:12.112Z,55.84
2023-05-17T12:04:41.499Z,54.00
2023-05-17T12:07:12.042Z,53.39
2023-05-17T12:09:41.778Z,52.96
2023-05-17T12:12:11.691Z,52.36
2023-05-17T12:14:45.126Z,52.72
2023-05-17T12:17:26.077Z,52.24
2023-05-17T12:19:56.199Z,51.24
2023-05-17T12:22:25.675Z,50.63
2023-05-17T12:24:55.781Z,50.41
2023-05-17T12:27:28.484Z,49.15
2023-05-17T12:29:57.802Z,48.24
2023-05-17T12:32:27.982Z,47.78
2023-05-17T12:34:57.331Z,47.57
2023-05-17T12:37:27.442Z,47.03
2023-05-17T12:39:58.362Z,45.13
2023-05-17T12:42:27.650Z,44.33
2023-05-17T12:44:56.854Z,44.14
2023-05-17T12:47:36.764Z,42.78
2023-05-17T12:50:07.763Z,41.86
2023-05-17T12:52:38.768Z,41.99
2023-05-17T12:55:14.198Z,40.82
2023-05-17T12:57:51.020Z,40.90
2023-05-17T13:00:23.121Z,40.88
2023-05-17T13:02:53.335Z,40.70
2023-05-17T13:05:23.804Z,40.41
2023-05-17T13:07:55.235Z,40.34
2023-05-17T13:10:29.458Z,40.55
2023-05-17T13:13:01.458Z,41.77
2023-05-17T13:15:33.912Z,42.09
2023-05-17T13:18:14.089Z,42.41
2023-05-17T13:20:44.249Z,42.76
2023-05-17T13:23:13.570Z,43.56
2023-05-17T13:25:45.218Z,44.01
2023-05-17T13:28:15.516Z,44.06
2023-05-17T13:30:52.496Z,45.00
2023-05-17T13:33:21.870Z,45.07
2023-05-17T13:35:51.581Z,45.41
2023-05-17T13:38:21.037Z,45.85
2023-05-17T13:40:50.663Z,46.03
2023-05-17T13:43:20.982Z,45.81
2023-05-17T13:45:55.088Z,45.18
2023-05-17T13:48:24.917Z,44.96
2023-05-17T13:50:54.270Z,44.70
2023-05-17T13:53:23.733Z,44.80
2023-05-17T13:55:52.624Z,44.84
2023-05-17T13:58:22.228Z,45.18
2023-05-17T14:00:52.455Z,44.15
2023-05-17T14:03:22.397Z,44.15
2023-05-17T14:05:53.292Z,44.72
2023-05-17T14:08:22.584Z,45.08
2023-05-17T14:10:52.282Z,45.30
2023-05-17T14:13:21.919Z,46.01
2023-05-17T14:15:51.443Z,45.88
2023-05-17T14:18:21.127Z,45.89
2023-05-17T14:20:50.596Z,45.96
2023-05-17T14:23:20.149Z,45.97
2023-05-17T14:25:52.243Z,46.11
2023-05-17T14:28:21.955Z,46.34
2023-05-17T14:30:52.351Z,46.58
2023-05-17T14:33:21.770Z,46.75
2023-05-17T14:35:51.593Z,46.79
2023-05-17T14:38:22.648Z,46.85
2023-05-17T14:40:52.753Z,47.13
2023-05-17T14:43:21.981Z,46.87
2023-05-17T14:45:50.828Z,46.80
2023-05-17T14:48:21.032Z,46.89
2023-05-17T14:50:54.216Z,46.96
2023-05-17T14:53:29.503Z,46.98
2023-05-17T14:55:59.777Z,47.19
2023-05-17T14:58:29.227Z,47.20
2023-05-17T15:01:06.356Z,47.75
2023-05-17T15:03:36.666Z,47.89
2023-05-17T15:06:08.216Z,47.54
2023-05-17T15:08:39.771Z,47.54
2023-05-17T15:11:10.053Z,48.05
2023-05-17T15:13:39.144Z,48.12
2023-05-17T15:16:09.162Z,48.45
2023-05-17T15:18:39.084Z,48.31
2023-05-17T15:21:08.388Z,48.84
2023-05-17T15:23:37.702Z,48.76
2023-05-17T15:26:07.920Z,48.84
2023-05-17T15:28:38.206Z,49.10
2023-05-17T15:31:11.721Z,49.36
2023-05-17T15:33:43.298Z,49.73
2023-05-17T15:36:15.523Z,49.97
2023-05-17T15:38:44.813Z,50.24
2023-05-17T15:41:19.755Z,50.17
2023-05-17T15:43:48.972Z,50.48
2023-05-17T15:46:18.585Z,50.60
2023-05-17T15:48:48.617Z,50.38
2023-05-17T15:51:18.411Z,49.80
2023-05-17T15:53:48.651Z,49.40
2023-05-17T15:56:20.966Z,49.77
2023-05-17T15:58:50.320Z,49.65
2023-05-17T16:01:19.497Z,49.94
2023-05-17T16:03:48.691Z,49.98
2023-05-17T16:06:17.783Z,49.98
2023-05-17T16:08:46.773Z,50.16
2023-05-17T16:11:15.704Z,50.02
2023-05-17T16:13:45.687Z,49.73
2023-05-17T16:16:15.683Z,49.76
2023-05-17T16:18:44.830Z,49.96
2023-05-17T16:21:14.665Z,50.07
2023-05-17T16:23:44.059Z,50.22
2023-05-17T16:26:13.629Z,50.31
2023-05-17T16:28:42.931Z,50.32
2023-05-17T16:31:12.247Z,50.56
2023-05-17T16:33:42.097Z,50.72
2023-05-17T16:36:13.150Z,51.03
2023-05-17T16:38:42.314Z,51.11
2023-05-17T16:41:11.447Z,50.95
2023-05-17T16:43:40.549Z,51.29
2023-05-17T16:46:09.465Z,51.62
2023-05-17T16:48:38.883Z,51.52
2023-05-17T16:51:07.982Z,51.56
2023-05-17T16:53:36.881Z,51.89
2023-05-17T16:56:06.729Z,51.85
2023-05-17T16:58:36.305Z,52.00
2023-05-17T17:01:06.385Z,52.07
2023-05-17T17:03:35.651Z,52.22
2023-05-17T17:06:04.735Z,52.38
2023-05-17T17:08:34.646Z,52.64
2023-05-17T17:11:04.519Z,52.61
2023-05-17T17:13:33.814Z,52.71
2023-05-17T17:16:03.046Z,52.83
2023-05-17T17:18:32.427Z,52.99
2023-05-17T17:21:01.602Z,53.03
2023-05-17T17:23:30.656Z,53.07
2023-05-17T17:25:59.810Z,53.41
2023-05-17T17:28:29.430Z,53.71
2023-05-17T17:30:59.019Z,53.82
2023-05-17T17:33:28.852Z,53.75
2023-05-17T17:35:58.586Z,53.64
2023-05-17T17:38:28.767Z,54.00
2023-05-17T17:40:58.182Z,54.05
2023-05-17T17:43:27.612Z,54.13
2023-05-17T17:45:57.106Z,54.24
2023-05-17T17:48:26.720Z,54.28
2023-05-17T17:50:58.044Z,54.39
2023-05-17T17:53:29.390Z,54.45
2023-05-17T17:55:58.581Z,54.77
2023-05-17T17:58:27.266Z,54.79
2023-05-17T18:00:56.652Z,54.67
2023-05-17T18:03:25.734Z,54.70
2023-05-17T18:05:55.365Z,54.81
2023-05-17T18:08:24.864Z,55.04
2023-05-17T18:10:54.994Z,55.38
2023-05-17T18:13:24.960Z,55.44
2023-05-17T18:15:54.854Z,55.53
2023-05-17T18:18:24.093Z,55.72
2023-05-17T18:20:53.693Z,56.09
2023-05-17T18:23:25.478Z,56.12
2023-05-17T18:25:54.603Z,56.11
2023-05-17T18:28:33.800Z,55.85
2023-05-17T18:31:10.249Z,56.23
2023-05-17T18:33:39.785Z,56.27
2023-05-17T18:36:09.115Z,56.31
2023-05-17T18:38:38.432Z,56.71
2023-05-17T18:41:08.312Z,57.39
2023-05-17T18:43:38.256Z,57.44
2023-05-17T18:46:08.930Z,57.41
2023-05-17T18:48:40.263Z,57.53
2023-05-17T18:51:10.567Z,57.73
2023-05-17T18:53:39.924Z,57.94
2023-05-17T18:56:09.444Z,58.22
2023-05-17T18:58:39.264Z,58.13
2023-05-17T19:01:09.065Z,58.01
2023-05-17T19:03:38.801Z,58.14
2023-05-17T19:06:08.663Z,58.32
2023-05-17T19:08:39.554Z,58.30
2023-05-17T19:11:09.182Z,58.53
2023-05-17T19:13:38.417Z,58.58
2023-05-17T19:16:08.623Z,58.54
2023-05-17T19:18:39.036Z,58.61
2023-05-17T19:21:09.146Z,58.36
2023-05-17T19:23:40.715Z,58.64
2023-05-17T19:26:10.951Z,58.80
2023-05-17T19:28:41.232Z,58.98
2023-05-17T19:31:12.535Z,58.80
2023-05-17T19:33:42.363Z,58.76
2023-05-17T19:36:12.393Z,58.86
2023-05-17T19:38:42.398Z,58.95
2023-05-17T19:41:12.284Z,58.60
2023-05-17T19:43:42.359Z,58.75
2023-05-17T19:46:13.503Z,58.89
2023-05-17T19:48:43.386Z,58.90
2023-05-17T19:51:14.126Z,58.96
2023-05-17T19:53:53.032Z,58.70
2023-05-17T19:56:27.788Z,58.37
2023-05-17T19:58:59.275Z,58.44
2023-05-17T20:01:31.275Z,58.29
2023-05-17T20:04:03.348Z,58.46
2023-05-17T20:06:35.261Z,58.86
2023-05-17T20:09:07.474Z,58.85
2023-05-17T20:11:38.612Z,58.94
2023-05-17T20:14:10.652Z,58.86
2023-05-17T20:16:40.445Z,58.80
2023-05-17T20:19:10.437Z,58.96
2023-05-17T20:21:40.498Z,58.64
2023-05-17T20:24:11.342Z,58.57
2023-05-17T20:26:46.002Z,58.53
2023-05-17T20:29:16.067Z,58.68
2023-05-17T20:31:47.049Z,58.89
2023-05-17T20:34:17.256Z,58.92
2023-05-17T20:36:48.179Z,58.85
2023-05-17T20:39:22.022Z,58.62
2023-05-17T20:41:53.216Z,58.68
2023-05-17T20:44:25.445Z,58.77
2023-05-17T20:46:58.248Z,58.94
2023-05-17T20:49:28.519Z,59.14
2023-05-17T20:52:03.792Z,59.17
2023-05-17T20:54:33.522Z,59.27
2023-05-17T20:57:04.616Z,59.31
2023-05-17T20:59:33.778Z,59.44
2023-05-17T21:02:04.748Z,59.89
2023-05-17T21:04:34.281Z,59.96
2023-05-17T21:07:04.175Z,60.04
2023-05-17T21:09:34.608Z,60.23
2023-05-17T21:12:05.254Z,60.52
2023-05-17T21:14:37.788Z,60.90
2023-05-17T21:17:10.576Z,60.99
2023-05-17T21:19:40.198Z,60.93
2023-05-17T21:22:11.322Z,60.85
2023-05-17T21:24:42.129Z,61.01
2023-05-17T21:27:12.423Z,61.28
2023-05-17T21:29:41.936Z,61.55
2023-05-17T21:32:10.912Z,61.32
2023-05-17T21:34:40.387Z,61.19
2023-05-17T21:37:10.145Z,61.05
2023-05-17T21:39:39.534Z,61.25
2023-05-17T21:42:09.100Z,61.02
2023-05-17T21:44:38.660Z,60.97
2023-05-17T21:47:08.457Z,60.94
2023-05-17T21:49:38.422Z,61.34
2023-05-17T21:52:07.935Z,61.82
2023-05-17T21:54:37.239Z,61.91
2023-05-17T21:57:06.596Z,62.10
2023-05-17T21:59:36.994Z,62.26
2023-05-17T22:02:07.481Z,62.45
2023-05-17T22:04:38.381Z,62.43
2023-05-17T22:07:07.710Z,62.30
2023-05-17T22:09:37.597Z,62.37
2023-05-17T22:12:08.819Z,62.44
2023-05-17T22:14:39.218Z,62.67
2023-05-17T22:17:09.486Z,62.53
2023-05-17T22:19:41.236Z,62.35
2023-05-17T22:22:10.294Z,62.37
2023-05-17T22:24:39.443Z,62.31
2023-05-17T22:27:08.198Z,62.07
2023-05-17T22:29:40.429Z,61.84
2023-05-17T22:32:10.452Z,61.83
2023-05-17T22:34:41.493Z,61.97
2023-05-17T22:37:12.495Z,62.24
2023-05-17T22:39:42.258Z,62.32
2023-05-17T22:42:11.239Z,62.17
2023-05-17T22:44:40.037Z,62.16
2023-05-17T22:47:09.690Z,62.50
2023-05-17T22:49:38.971Z,62.80
2023-05-17T22:52:08.944Z,62.65
2023-05-17T22:54:39.274Z,62.54
2023-05-17T22:57:09.720Z,62.61
2023-05-17T22:59:38.959Z,63.14
2023-05-17T23:02:08.206Z,63.19
2023-05-17T23:04:38.417Z,63.20
2023-05-17T23:07:10.413Z,63.41
2023-05-17T23:09:39.289Z,63.88
2023-05-17T23:12:14.358Z,64.05
2023-05-17T23:14:43.887Z,63.81
2023-05-17T23:17:12.621Z,63.59
2023-05-17T23:19:41.952Z,63.45
2023-05-17T23:22:11.382Z,63.34
2023-05-17T23:24:40.492Z,63.29
2023-05-17T23:27:10.492Z,63.02
2023-05-17T23:29:42.264Z,62.81
2023-05-17T23:32:11.288Z,63.00
2023-05-17T23:34:40.144Z,63.28
2023-05-17T23:37:09.157Z,63.31
2023-05-17T23:39:39.037Z,63.28
2023-05-17T23:42:10.826Z,63.14
2023-05-17T23:44:43.408Z,63.58
2023-05-17T23:47:12.853Z,63.85
2023-05-17T23:49:41.804Z,63.67
2023-05-17T23:52:13.548Z,63.64
2023-05-17T23:54:42.366Z,63.78
2023-05-17T23:57:11.444Z,64.05
2023-05-17T23:59:40.822Z,63.97
